createdAt,value
2023-02-27T00:00:15.133Z,3.70
2023-02-27T00:03:18.253Z,3.67
2023-02-27T00:06:22.301Z,3.75
2023-02-27T00:09:25.462Z,3.70
2023-02-27T00:12:28.013Z,3.87
2023-02-27T00:15:32.298Z,3.40
2023-02-27T00:18:35.249Z,3.22
2023-02-27T00:21:38.567Z,2.97
2023-02-27T00:24:41.402Z,3.12
2023-02-27T00:27:45.149Z,2.83
2023-02-27T00:30:48.114Z,3.20
2023-02-27T00:33:51.125Z,3.83
2023-02-27T00:36:54.112Z,2.85
2023-02-27T00:39:57.397Z,3.28
2023-02-27T00:43:00.218Z,3.20
2023-02-27T00:46:05.497Z,3.23
2023-02-27T00:49:08.805Z,3.30
2023-02-27T00:52:12.220Z,3.22
2023-02-27T00:55:14.903Z,3.00
2023-02-27T00:58:18.838Z,3.37
2023-02-27T01:01:21.653Z,4.20
2023-02-27T01:04:25.473Z,3.67
2023-02-27T01:07:29.293Z,3.42
2023-02-27T01:10:32.849Z,3.53
2023-02-27T01:13:38.412Z,3.70
2023-02-27T01:16:41.194Z,4.43
2023-02-27T01:19:44.075Z,3.03
2023-02-27T01:22:47.048Z,3.90
2023-02-27T01:25:50.172Z,3.70
2023-02-27T01:28:52.919Z,4.18
2023-02-27T01:31:55.565Z,4.87
2023-02-27T01:34:58.782Z,6.00
2023-02-27T01:38:02.406Z,4.32
2023-02-27T01:41:07.299Z,2.90
2023-02-27T01:44:12.109Z,3.30
2023-02-27T01:47:15.106Z,3.47
2023-02-27T01:50:20.202Z,3.37
2023-02-27T01:53:27.175Z,3.22
2023-02-27T01:56:32.134Z,3.30
2023-02-27T01:59:36.842Z,3.58
2023-02-27T02:02:47.694Z,3.33
2023-02-27T02:05:53.770Z,3.67
2023-02-27T02:08:59.705Z,3.43
2023-02-27T02:12:04.202Z,2.90
2023-02-27T02:15:07.654Z,3.22
2023-02-27T02:18:19.519Z,3.05
2023-02-27T02:21:49.446Z,2.53
2023-02-27T02:24:55.318Z,3.45
2023-02-27T02:28:10.710Z,3.25
2023-02-27T02:31:33.520Z,3.58
2023-02-27T02:34:45.597Z,3.03
2023-02-27T02:37:57.611Z,2.30
2023-02-27T02:41:46.906Z,2.45
2023-02-27T02:45:21.502Z,2.40
2023-02-27T02:48:36.510Z,3.30
2023-02-27T02:51:43.459Z,2.97
2023-02-27T02:55:16.855Z,3.20
2023-02-27T02:58:32.882Z,2.62
2023-02-27T03:01:46.321Z,3.23
2023-02-27T03:04:56.004Z,5.22
2023-02-27T03:08:03.676Z,4.72
2023-02-27T03:11:08.566Z,3.70
2023-02-27T03:14:20.028Z,6.00
2023-02-27T03:17:49.586Z,4.28
2023-02-27T03:20:57.608Z,2.60
2023-02-27T03:24:04.888Z,3.33
2023-02-27T03:27:09.621Z,2.77
2023-02-27T03:30:26.374Z,2.85
2023-02-27T03:33:36.239Z,2.47
2023-02-27T03:36:49.696Z,2.53
2023-02-27T03:40:06.836Z,2.90
2023-02-27T03:43:20.885Z,2.55
2023-02-27T03:46:26.783Z,2.47
2023-02-27T03:49:29.941Z,2.72
2023-02-27T03:52:33.575Z,2.90
2023-02-27T03:55:40.166Z,2.53
2023-02-27T03:58:43.944Z,3.10
2023-02-27T04:01:47.860Z,2.50
2023-02-27T04:04:52.457Z,2.33
2023-02-27T04:08:24.663Z,2.53
2023-02-27T04:11:35.835Z,2.87
2023-02-27T04:15:06.542Z,2.60
2023-02-27T04:18:27.739Z,2.50
2023-02-27T04:21:59.274Z,2.47
2023-02-27T04:25:27.916Z,2.58
2023-02-27T04:28:43.652Z,2.00
2023-02-27T04:32:03.165Z,2.37
2023-02-27T04:35:12.869Z,2.30
2023-02-27T04:39:01.327Z,2.08
2023-02-27T04:42:21.838Z,2.15
2023-02-27T04:45:28.836Z,2.10
2023-02-27T04:48:41.674Z,2.55
2023-02-27T04:51:54.281Z,2.47
2023-02-27T04:55:02.070Z,3.60
2023-02-27T04:58:16.709Z,3.40
2023-02-27T05:01:38.150Z,3.45
2023-02-27T05:04:46.516Z,3.80
2023-02-27T05:08:01.248Z,3.47
2023-02-27T05:11:32.519Z,2.50
2023-02-27T05:14:42.852Z,2.70
2023-02-27T05:17:46.166Z,2.83
2023-02-27T05:21:09.466Z,3.00
2023-02-27T05:24:36.491Z,2.50
2023-02-27T05:27:59.526Z,2.70
2023-02-27T05:31:16.153Z,4.57
2023-02-27T05:34:41.492Z,3.00
2023-02-27T05:37:53.430Z,3.57
2023-02-27T05:41:12.281Z,3.45
2023-02-27T05:44:20.115Z,4.70
2023-02-27T05:47:33.619Z,3.33
2023-02-27T05:50:38.933Z,4.10
2023-02-27T05:53:46.444Z,2.80
2023-02-27T05:56:55.316Z,3.25
2023-02-27T06:00:19.159Z,4.05
2023-02-27T06:03:22.929Z,3.87
2023-02-27T06:06:28.084Z,3.85
2023-02-27T06:09:34.678Z,3.33
2023-02-27T06:12:46.151Z,3.90
2023-02-27T06:15:54.908Z,2.70
2023-02-27T06:18:57.741Z,2.40
2023-02-27T06:22:00.553Z,2.60
2023-02-27T06:25:03.863Z,2.15
2023-02-27T06:28:08.126Z,4.70
2023-02-27T06:31:11.602Z,2.55
2023-02-27T06:34:14.989Z,7.37
2023-02-27T06:37:17.751Z,4.12
2023-02-27T06:40:23.217Z,3.78
2023-02-27T06:43:30.156Z,2.67
2023-02-27T06:46:35.335Z,2.75
2023-02-27T06:49:52.113Z,2.37
2023-02-27T06:53:03.952Z,2.50
2023-02-27T06:56:08.389Z,3.08
2023-02-27T06:59:15.842Z,2.87
2023-02-27T07:02:18.724Z,2.50
2023-02-27T07:05:22.099Z,2.60
2023-02-27T07:08:25.842Z,2.87
2023-02-27T07:11:29.971Z,2.97
2023-02-27T07:14:35.094Z,2.90
2023-02-27T07:17:42.314Z,2.53
2023-02-27T07:20:45.358Z,2.90
2023-02-27T07:23:50.533Z,3.75
2023-02-27T07:26:54.055Z,4.25
2023-02-27T07:30:01.779Z,3.78
2023-02-27T07:33:12.351Z,3.28
2023-02-27T07:36:15.931Z,3.47
2023-02-27T07:39:19.560Z,4.75
2023-02-27T07:42:22.860Z,4.95
2023-02-27T07:45:28.710Z,2.80
2023-02-27T07:48:35.269Z,3.57
2023-02-27T07:51:40.058Z,2.50
2023-02-27T07:54:43.565Z,3.72
2023-02-27T07:57:48.291Z,2.95
2023-02-27T08:00:55.168Z,2.55
2023-02-27T08:03:58.606Z,2.90
2023-02-27T08:07:03.272Z,3.20
2023-02-27T08:10:07.112Z,3.00
2023-02-27T08:13:11.998Z,4.43
2023-02-27T08:16:20.218Z,4.70
2023-02-27T08:19:25.173Z,2.53
2023-02-27T08:22:33.441Z,3.10
2023-02-27T08:25:40.537Z,4.85
2023-02-27T08:28:44.820Z,3.92
2023-02-27T08:31:52.730Z,3.37
2023-02-27T08:35:00.206Z,3.10
2023-02-27T08:38:10.529Z,2.87
2023-02-27T08:41:15.260Z,3.00
2023-02-27T08:44:18.022Z,2.83
2023-02-27T08:47:21.305Z,2.55
2023-02-27T08:50:25.974Z,2.85
2023-02-27T08:53:30.454Z,2.50
2023-02-27T08:56:35.128Z,2.93
2023-02-27T08:59:38.572Z,2.95
2023-02-27T09:02:42.678Z,3.00
2023-02-27T09:05:53.548Z,2.80
2023-02-27T09:09:00.352Z,3.17
2023-02-27T09:12:04.655Z,3.20
2023-02-27T09:15:09.082Z,2.65
2023-02-27T09:18:13.953Z,2.83
2023-02-27T09:21:18.648Z,3.20
2023-02-27T09:24:25.204Z,3.07
2023-02-27T09:27:29.289Z,3.10
2023-02-27T09:30:34.202Z,3.03
2023-02-27T09:33:38.501Z,3.10
2023-02-27T09:36:44.237Z,2.87
2023-02-27T09:39:48.567Z,3.20
2023-02-27T09:42:58.233Z,2.45
2023-02-27T09:46:02.341Z,3.03
2023-02-27T09:49:16.969Z,3.03
2023-02-27T09:52:21.839Z,2.97
2023-02-27T09:55:31.061Z,2.58
2023-02-27T09:58:50.379Z,2.62
2023-02-27T10:02:06.326Z,3.20
2023-02-27T10:05:36.440Z,2.90
2023-02-27T10:08:54.225Z,2.87
2023-02-27T10:12:07.567Z,2.70
2023-02-27T10:15:35.561Z,2.17
2023-02-27T10:18:54.383Z,2.72
2023-02-27T10:22:00.452Z,2.92
2023-02-27T10:25:31.354Z,2.70
2023-02-27T10:28:35.853Z,3.27
2023-02-27T10:31:40.474Z,3.22
2023-02-27T10:34:49.569Z,3.50
2023-02-27T10:38:01.280Z,3.17
2023-02-27T10:41:15.112Z,2.73
2023-02-27T10:44:21.462Z,2.73
2023-02-27T10:47:26.018Z,3.47
2023-02-27T10:50:37.067Z,2.97
2023-02-27T10:53:40.408Z,3.40
2023-02-27T10:57:00.136Z,3.23
2023-02-27T11:00:12.211Z,3.03
2023-02-27T11:03:25.828Z,3.72
2023-02-27T11:06:28.757Z,2.92
2023-02-27T11:09:36.798Z,3.20
2023-02-27T11:12:42.255Z,3.00
2023-02-27T11:16:07.102Z,3.27
2023-02-27T11:19:26.762Z,3.45
2023-02-27T11:22:32.336Z,3.08
2023-02-27T11:25:35.974Z,3.72
2023-02-27T11:28:40.074Z,3.30
2023-02-27T11:31:53.174Z,3.40
2023-02-27T11:34:58.540Z,4.03
2023-02-27T11:38:05.358Z,2.75
2023-02-27T11:41:13.015Z,2.97
2023-02-27T11:44:27.384Z,3.60
2023-02-27T11:47:50.453Z,3.10
2023-02-27T11:51:26.322Z,3.25
2023-02-27T11:54:40.418Z,3.22
2023-02-27T11:57:48.595Z,3.67
2023-02-27T12:00:57.452Z,3.50
2023-02-27T12:04:18.166Z,3.20
2023-02-27T12:07:46.782Z,3.22
2023-02-27T12:11:14.767Z,9.20
2023-02-27T12:14:27.551Z,3.67
2023-02-27T12:17:40.961Z,5.17
2023-02-27T12:21:10.048Z,3.33
2023-02-27T12:24:28.560Z,3.20
2023-02-27T12:27:49.049Z,3.40
2023-02-27T12:31:06.476Z,3.20
2023-02-27T12:34:29.561Z,3.30
2023-02-27T12:37:35.826Z,3.40
2023-02-27T12:40:59.797Z,3.40
2023-02-27T12:44:18.796Z,3.80
2023-02-27T12:47:53.675Z,2.78
2023-02-27T12:51:21.663Z,3.23
2023-02-27T12:54:39.650Z,3.37
2023-02-27T12:58:08.118Z,2.85
2023-02-27T13:01:42.714Z,2.78
2023-02-27T13:04:54.899Z,3.50
2023-02-27T13:08:07.363Z,3.20
2023-02-27T13:11:39.154Z,5.63
2023-02-27T13:15:16.132Z,3.40
2023-02-27T13:18:26.125Z,3.65
2023-02-27T13:38:09.991Z,3.75
2023-02-27T13:42:25.333Z,3.65
2023-02-27T13:45:52.350Z,4.03
2023-02-27T13:49:04.766Z,5.20
2023-02-27T13:52:08.563Z,4.00
2023-02-27T13:55:28.730Z,3.50
2023-02-27T13:58:33.195Z,4.50
2023-02-27T14:01:46.072Z,4.20
2023-02-27T14:04:54.567Z,4.73
2023-02-27T14:08:29.561Z,7.43
2023-02-27T14:11:40.292Z,13.30
2023-02-27T14:14:50.204Z,6.00
2023-02-27T14:18:12.608Z,8.57
2023-02-27T14:21:51.532Z,7.93
2023-02-27T14:25:03.592Z,5.17
2023-02-27T14:28:38.356Z,7.95
2023-02-27T14:31:44.732Z,4.75
2023-02-27T14:35:02.114Z,4.47
2023-02-27T14:38:12.166Z,3.73
2023-02-27T14:41:44.870Z,3.77
2023-02-27T14:44:56.974Z,4.65
2023-02-27T14:48:11.384Z,4.35
2023-02-27T14:51:17.735Z,4.90
2023-02-27T14:54:29.327Z,4.57
2023-02-27T14:57:37.328Z,3.70
2023-02-27T15:00:50.833Z,4.60
2023-02-27T15:03:58.339Z,17.87
2023-02-27T15:07:05.584Z,6.22
2023-02-27T15:10:26.060Z,4.00
2023-02-27T15:13:41.551Z,3.90
2023-02-27T15:16:47.275Z,3.90
2023-02-27T15:19:56.917Z,7.62
2023-02-27T15:23:24.342Z,5.50
2023-02-27T15:26:43.103Z,7.20
2023-02-27T15:29:53.124Z,7.60
2023-02-27T15:32:59.259Z,5.37
2023-02-27T15:36:24.033Z,4.20
2023-02-27T15:39:36.104Z,6.87
2023-02-27T15:42:43.346Z,8.13
2023-02-27T15:45:49.156Z,5.60
2023-02-27T15:48:56.193Z,5.53
2023-02-27T15:52:20.291Z,8.32
2023-02-27T15:55:30.137Z,11.52
2023-02-27T15:58:45.024Z,8.13
2023-02-27T16:01:53.068Z,6.93
2023-02-27T16:05:01.277Z,5.97
2023-02-27T16:08:06.987Z,6.05
2023-02-27T16:11:20.084Z,6.45
2023-02-27T16:14:51.995Z,7.23
2023-02-27T16:18:02.117Z,16.87
2023-02-27T16:21:14.521Z,24.83
2023-02-27T16:24:31.036Z,30.92
2023-02-27T16:27:50.474Z,40.58
2023-02-27T16:30:58.695Z,32.30
2023-02-27T16:34:26.121Z,23.35
2023-02-27T16:37:38.944Z,12.43
2023-02-27T16:40:47.597Z,14.35
2023-02-27T16:44:01.250Z,8.88
2023-02-27T16:47:09.538Z,9.07
2023-02-27T16:50:17.624Z,14.15
2023-02-27T16:53:24.532Z,16.15
2023-02-27T16:56:39.420Z,16.10
2023-02-27T16:59:59.125Z,14.45
2023-02-27T17:42:07.298Z,10.97
2023-02-27T17:45:12.543Z,15.98
2023-02-27T17:48:27.163Z,15.73
2023-02-27T17:51:39.079Z,14.65
2023-02-27T17:54:51.742Z,14.95
2023-02-27T17:58:02.058Z,16.85
2023-02-27T18:01:14.080Z,15.45
2023-02-27T18:04:25.700Z,14.33
2023-02-27T18:07:31.092Z,13.98
2023-02-27T18:10:54.079Z,16.10
2023-02-27T18:14:08.413Z,17.02
2023-02-27T18:17:26.073Z,28.77
2023-02-27T18:20:40.468Z,35.10
2023-02-27T18:24:00.996Z,24.50
2023-02-27T18:31:47.077Z,17.73
2023-02-27T18:34:58.739Z,16.17
2023-02-27T18:38:09.094Z,11.15
2023-02-27T18:41:16.250Z,18.85
2023-02-27T18:44:19.579Z,10.70
2023-02-27T18:47:25.670Z,9.60
2023-02-27T18:50:31.310Z,8.63
2023-02-27T18:53:49.181Z,8.32
2023-02-27T18:57:00.784Z,9.00
2023-02-27T19:00:19.109Z,8.57
2023-02-27T19:03:25.178Z,7.37
2023-02-27T19:06:42.350Z,7.45
2023-02-27T19:09:50.356Z,5.73
2023-02-27T19:13:14.402Z,5.85
2023-02-27T19:16:22.228Z,4.70
2023-02-27T19:19:30.040Z,4.07
2023-02-27T19:22:34.130Z,4.17
2023-02-27T19:25:43.621Z,10.65
2023-02-27T19:28:57.393Z,6.03
2023-02-27T19:32:07.699Z,4.85
2023-02-27T19:35:17.288Z,5.07
2023-02-27T19:38:27.712Z,6.00
2023-02-27T19:41:34.255Z,5.20
2023-02-27T19:44:45.152Z,5.43
2023-02-27T19:47:51.060Z,4.62
2023-02-27T19:51:07.506Z,5.03
2023-02-27T19:54:20.003Z,4.07
2023-02-27T19:57:30.752Z,5.73
2023-02-27T20:00:40.292Z,5.50
2023-02-27T20:03:53.063Z,5.20
2023-02-27T20:06:56.368Z,5.32
2023-02-27T20:10:06.454Z,5.60
2023-02-27T20:13:17.011Z,5.45
2023-02-27T20:16:27.444Z,6.12
2023-02-27T20:19:33.063Z,5.07
2023-02-27T20:22:43.540Z,6.00
2023-02-27T20:25:47.987Z,3.37
2023-02-27T20:29:01.087Z,4.75
2023-02-27T20:32:13.279Z,3.77
2023-02-27T20:35:30.281Z,4.60
2023-02-27T20:38:40.200Z,4.07
2023-02-27T20:41:49.369Z,4.97
2023-02-27T20:44:55.747Z,5.07
2023-02-27T20:48:02.076Z,4.07
2023-02-27T20:51:23.461Z,5.60
2023-02-27T20:54:31.117Z,4.93
2023-02-27T20:57:39.538Z,3.37
2023-02-27T21:00:44.636Z,3.90
2023-02-27T21:03:51.382Z,4.75
2023-02-27T21:06:57.128Z,5.22
2023-02-27T21:10:00.045Z,4.82
2023-02-27T21:13:06.039Z,6.95
2023-02-27T21:16:14.077Z,5.40
2023-02-27T21:19:22.731Z,4.67
2023-02-27T21:22:26.285Z,5.53
2023-02-27T21:25:33.363Z,5.20
2023-02-27T21:28:43.074Z,4.62
2023-02-27T21:31:49.116Z,4.93
2023-02-27T21:34:53.286Z,5.07
2023-02-27T21:37:56.772Z,4.90
2023-02-27T21:41:17.004Z,5.20
2023-02-27T21:44:25.254Z,5.80
2023-02-27T21:47:28.998Z,8.05
2023-02-27T21:50:46.245Z,7.18
2023-02-27T21:53:57.040Z,6.40
2023-02-27T21:57:03.216Z,7.07
2023-02-27T22:00:12.006Z,6.87
2023-02-27T22:03:18.513Z,5.40
2023-02-27T22:06:24.755Z,5.43
2023-02-27T22:09:33.181Z,5.45
2023-02-27T22:12:38.256Z,5.85
2023-02-27T22:15:43.066Z,5.87
2023-02-27T22:18:47.854Z,6.30
2023-02-27T22:21:51.602Z,6.40
2023-02-27T22:24:55.214Z,8.43
2023-02-27T22:27:59.915Z,16.27
2023-02-27T22:31:12.198Z,13.18
2023-02-27T22:34:25.284Z,8.20
2023-02-27T22:37:28.742Z,7.03
2023-02-27T22:40:35.988Z,7.63
2023-02-27T22:43:39.845Z,7.03
2023-02-27T22:46:47.098Z,6.80
2023-02-27T22:49:51.384Z,7.05
2023-02-27T22:52:54.929Z,9.47
2023-02-27T22:55:57.438Z,7.45
2023-02-27T22:59:01.314Z,9.00
2023-02-27T23:02:06.413Z,8.38
2023-02-27T23:05:09.870Z,8.50
2023-02-27T23:08:12.748Z,7.82
2023-02-27T23:11:18.503Z,7.28
2023-02-27T23:14:22.536Z,6.72
2023-02-27T23:17:25.432Z,6.83
2023-02-27T23:20:28.059Z,6.93
2023-02-27T23:23:30.781Z,6.78
2023-02-27T23:26:38.177Z,7.10
2023-02-27T23:29:41.245Z,6.68
2023-02-27T23:32:47.235Z,6.82
2023-02-27T23:35:51.963Z,7.37
2023-02-27T23:38:59.104Z,7.07
2023-02-27T23:42:02.404Z,6.78
2023-02-27T23:45:05.795Z,6.75
2023-02-27T23:48:09.286Z,7.30
2023-02-27T23:51:12.358Z,7.27
2023-02-27T23:54:15.733Z,7.22
2023-02-27T23:57:18.262Z,8.20
